createdAt,value
2023-08-14T00:00:38.154Z,8.17
2023-08-14T00:03:06.793Z,8.00
2023-08-14T00:05:35.348Z,7.83
2023-08-14T00:08:03.758Z,7.57
2023-08-14T00:10:33.414Z,7.90
2023-08-14T00:13:01.670Z,7.90
2023-08-14T00:15:30.117Z,7.10
2023-08-14T00:17:58.430Z,7.70
2023-08-14T00:20:26.865Z,7.70
2023-08-14T00:22:55.276Z,7.57
2023-08-14T00:25:23.927Z,7.10
2023-08-14T00:27:53.523Z,7.60
2023-08-14T00:30:22.212Z,7.10
2023-08-14T00:32:50.762Z,7.00
2023-08-14T00:35:19.173Z,7.27
2023-08-14T00:37:48.534Z,6.73
2023-08-14T00:40:18.825Z,7.00
2023-08-14T00:42:48.623Z,7.07
2023-08-14T00:45:18.872Z,7.20
2023-08-14T00:47:48.216Z,7.73
2023-08-14T00:50:17.528Z,7.03
2023-08-14T00:52:48.445Z,7.13
2023-08-14T00:55:20.696Z,7.33
2023-08-14T00:57:49.177Z,6.90
2023-08-14T01:00:19.018Z,7.27
2023-08-14T01:02:49.247Z,7.37
2023-08-14T01:05:18.062Z,7.53
2023-08-14T01:07:46.890Z,7.90
2023-08-14T01:10:15.278Z,7.40
2023-08-14T01:12:52.103Z,7.60
2023-08-14T01:15:27.880Z,7.63
2023-08-14T01:17:59.938Z,7.33
2023-08-14T01:20:31.401Z,7.80
2023-08-14T01:23:08.615Z,8.17
2023-08-14T01:25:39.893Z,8.40
2023-08-14T01:28:10.713Z,8.00
2023-08-14T01:30:39.397Z,7.00
2023-08-14T01:33:07.715Z,7.60
2023-08-14T01:35:41.374Z,7.97
2023-08-14T01:38:18.398Z,7.60
2023-08-14T01:40:55.282Z,7.20
2023-08-14T01:43:28.616Z,8.00
2023-08-14T01:45:58.701Z,7.77
2023-08-14T01:48:28.105Z,8.33
2023-08-14T01:50:58.340Z,8.60
2023-08-14T01:53:26.731Z,8.20
2023-08-14T01:55:55.371Z,7.87
2023-08-14T01:58:24.138Z,8.07
2023-08-14T02:00:52.423Z,8.20
2023-08-14T02:03:20.861Z,8.00
2023-08-14T02:05:49.190Z,8.23
2023-08-14T02:08:17.546Z,7.87
2023-08-14T02:10:47.673Z,9.07
2023-08-14T02:13:17.490Z,8.73
2023-08-14T02:15:47.670Z,9.10
2023-08-14T02:18:16.597Z,8.87
2023-08-14T02:20:48.468Z,8.67
2023-08-14T02:23:16.938Z,9.10
2023-08-14T02:25:46.013Z,8.83
2023-08-14T02:28:14.594Z,8.63
2023-08-14T02:30:44.249Z,8.80
2023-08-14T02:33:12.785Z,9.57
2023-08-14T02:35:42.437Z,9.40
2023-08-14T02:38:10.788Z,8.53
2023-08-14T02:40:40.303Z,9.13
2023-08-14T02:43:08.746Z,9.70
2023-08-14T02:45:37.413Z,9.70
2023-08-14T02:48:07.636Z,9.57
2023-08-14T02:50:36.012Z,9.43
2023-08-14T02:53:04.520Z,9.73
2023-08-14T02:55:33.073Z,9.90
2023-08-14T02:58:01.444Z,10.13
2023-08-14T03:00:29.863Z,9.93
2023-08-14T03:02:58.380Z,9.50
2023-08-14T03:05:28.206Z,9.27
2023-08-14T03:07:56.534Z,10.13
2023-08-14T03:10:26.757Z,10.17
2023-08-14T03:12:55.154Z,10.23
2023-08-14T03:15:23.362Z,9.53
2023-08-14T03:17:51.758Z,9.63
2023-08-14T03:20:20.138Z,9.73
2023-08-14T03:22:49.724Z,10.07
2023-08-14T03:25:18.061Z,9.40
2023-08-14T03:27:46.430Z,9.90
2023-08-14T03:30:15.350Z,10.27
2023-08-14T03:32:43.744Z,9.70
2023-08-14T03:35:12.404Z,9.93
2023-08-14T03:37:40.709Z,10.20
2023-08-14T03:40:11.259Z,10.10
2023-08-14T03:42:39.522Z,10.30
2023-08-14T03:45:09.645Z,10.40
2023-08-14T03:47:38.616Z,10.60
2023-08-14T03:50:07.896Z,10.27
2023-08-14T03:52:36.313Z,11.20
2023-08-14T03:55:04.745Z,10.73
2023-08-14T03:57:34.418Z,10.23
2023-08-14T04:00:02.833Z,10.37
2023-08-14T04:02:41.070Z,11.47
2023-08-14T04:05:09.932Z,11.03
2023-08-14T04:07:38.578Z,10.40
2023-08-14T04:10:07.815Z,11.27
2023-08-14T04:12:37.388Z,11.80
2023-08-14T04:15:15.418Z,11.47
2023-08-14T04:17:44.101Z,12.60
2023-08-14T04:20:13.121Z,11.80
2023-08-14T04:22:41.698Z,11.53
2023-08-14T04:25:10.627Z,11.03
2023-08-14T04:27:40.853Z,11.70
2023-08-14T04:30:10.070Z,12.77
2023-08-14T04:32:38.422Z,11.97
2023-08-14T04:35:07.892Z,12.13
2023-08-14T04:37:37.174Z,13.10
2023-08-14T04:40:07.027Z,12.53
2023-08-14T04:42:35.730Z,13.30
2023-08-14T04:45:06.339Z,12.77
2023-08-14T04:47:34.733Z,12.67
2023-08-14T04:50:03.810Z,13.43
2023-08-14T04:52:32.289Z,12.23
2023-08-14T04:55:00.699Z,13.13
2023-08-14T04:57:33.019Z,12.93
2023-08-14T05:00:01.759Z,13.70
2023-08-14T05:02:33.915Z,12.37
2023-08-14T05:05:03.066Z,13.13
2023-08-14T05:07:31.425Z,12.90
2023-08-14T05:09:59.862Z,11.97
2023-08-14T05:12:28.943Z,12.60
2023-08-14T05:14:57.293Z,12.40
2023-08-14T05:17:26.001Z,12.00
2023-08-14T05:19:55.721Z,12.17
2023-08-14T05:22:24.052Z,13.00
2023-08-14T05:24:52.416Z,12.03
2023-08-14T05:27:20.656Z,11.53
2023-08-14T05:29:49.376Z,12.30
2023-08-14T05:32:17.848Z,11.90
2023-08-14T05:34:46.471Z,12.53
2023-08-14T05:37:16.187Z,11.83
2023-08-14T05:39:44.544Z,11.67
2023-08-14T05:42:12.897Z,11.83
2023-08-14T05:44:41.347Z,12.00
2023-08-14T05:47:09.619Z,11.40
2023-08-14T05:49:39.067Z,11.87
2023-08-14T05:52:07.666Z,11.17
2023-08-14T05:54:37.335Z,10.87
2023-08-14T05:57:05.699Z,11.43
2023-08-14T05:59:34.749Z,11.30
2023-08-14T06:02:04.131Z,11.10
2023-08-14T06:04:34.540Z,11.70
2023-08-14T06:07:02.900Z,10.90
2023-08-14T06:09:31.346Z,10.57
2023-08-14T06:12:00.990Z,11.53
2023-08-14T06:14:29.231Z,10.13
2023-08-14T06:16:57.760Z,11.73
2023-08-14T06:19:26.143Z,10.83
2023-08-14T06:21:55.320Z,9.67
2023-08-14T06:24:23.776Z,9.50
2023-08-14T06:26:52.111Z,9.87
2023-08-14T06:29:21.697Z,10.30
2023-08-14T06:31:50.058Z,8.90
2023-08-14T06:34:18.602Z,9.77
2023-08-14T06:36:47.435Z,9.03
2023-08-14T06:39:15.801Z,10.13
2023-08-14T06:41:44.090Z,9.80
2023-08-14T06:44:14.996Z,9.20
2023-08-14T06:46:44.841Z,8.77
2023-08-14T06:49:13.103Z,9.27
2023-08-14T06:51:41.901Z,9.67
2023-08-14T06:54:10.270Z,8.97
2023-08-14T06:56:38.686Z,8.60
2023-08-14T06:59:06.955Z,8.30
2023-08-14T07:01:35.260Z,8.57
2023-08-14T07:04:05.926Z,8.90
2023-08-14T07:06:34.309Z,8.25
2023-08-14T07:09:03.106Z,9.57
2023-08-14T07:11:37.744Z,9.65
2023-08-14T07:14:06.686Z,8.40
2023-08-14T07:16:35.147Z,8.70
2023-08-14T07:19:05.031Z,8.48
2023-08-14T07:21:33.503Z,8.45
2023-08-14T07:24:01.896Z,8.90
2023-08-14T07:26:30.426Z,8.68
2023-08-14T07:28:58.662Z,10.00
2023-08-14T07:31:27.059Z,9.60
2023-08-14T07:33:55.246Z,9.45
2023-08-14T07:36:25.034Z,10.05
2023-08-14T07:38:53.327Z,9.43
2023-08-14T07:41:21.563Z,9.48
2023-08-14T07:43:49.969Z,11.60
2023-08-14T07:46:19.522Z,13.00
2023-08-14T07:48:47.890Z,12.90
2023-08-14T07:51:16.120Z,15.68
2023-08-14T07:53:45.794Z,16.98
2023-08-14T07:56:14.179Z,18.83
2023-08-14T07:58:42.834Z,18.80
2023-08-14T08:01:11.718Z,19.67
2023-08-14T08:03:40.035Z,21.90
2023-08-14T08:06:08.433Z,23.20
2023-08-14T08:08:36.899Z,22.38
2023-08-14T08:11:06.537Z,24.42
2023-08-14T08:13:34.958Z,24.02
2023-08-14T08:16:03.288Z,34.53
2023-08-14T08:18:31.909Z,41.30
2023-08-14T08:21:00.319Z,37.78
2023-08-14T08:23:28.632Z,29.85
2023-08-14T08:25:57.223Z,25.13
2023-08-14T08:28:27.068Z,24.10
2023-08-14T08:30:55.382Z,25.10
2023-08-14T08:33:27.412Z,23.17
2023-08-14T08:35:56.354Z,23.90
2023-08-14T08:38:24.837Z,27.10
2023-08-14T08:40:54.234Z,24.20
2023-08-14T08:43:24.728Z,24.38
2023-08-14T08:45:59.263Z,22.55
2023-08-14T08:48:34.826Z,25.00
2023-08-14T08:51:03.678Z,23.77
2023-08-14T08:53:32.640Z,25.92
2023-08-14T08:56:00.964Z,25.38
2023-08-14T08:58:29.545Z,27.33
2023-08-14T09:01:00.871Z,28.50
2023-08-14T09:03:29.333Z,25.13
2023-08-14T09:05:57.923Z,29.42
2023-08-14T09:08:26.291Z,19.27
2023-08-14T09:10:54.580Z,15.48
2023-08-14T09:13:31.466Z,13.52
2023-08-14T09:16:03.731Z,16.48
2023-08-14T09:18:32.867Z,14.18
2023-08-14T09:21:03.662Z,10.77
2023-08-14T09:23:33.974Z,16.77
2023-08-14T09:26:02.419Z,10.15
2023-08-14T09:28:30.809Z,7.80
2023-08-14T09:31:08.994Z,7.60
2023-08-14T09:33:38.753Z,8.48
2023-08-14T09:36:07.496Z,9.90
2023-08-14T09:38:36.072Z,12.05
2023-08-14T09:41:04.490Z,12.63
2023-08-14T09:43:34.235Z,16.38
2023-08-14T09:46:04.189Z,16.40
2023-08-14T09:48:44.389Z,9.93
2023-08-14T09:51:13.833Z,7.70
2023-08-14T09:53:46.718Z,7.07
2023-08-14T09:56:15.310Z,6.45
2023-08-14T09:58:43.893Z,5.47
2023-08-14T10:01:14.782Z,4.95
2023-08-14T10:03:47.548Z,5.72
2023-08-14T10:06:17.767Z,6.93
2023-08-14T10:08:46.874Z,5.90
2023-08-14T10:11:19.933Z,5.68
2023-08-14T10:13:54.166Z,5.35
2023-08-14T10:16:25.208Z,5.63
2023-08-14T10:18:57.170Z,5.22
2023-08-14T10:21:28.552Z,4.90
2023-08-14T10:24:00.484Z,5.13
2023-08-14T10:26:29.329Z,4.43
2023-08-14T10:28:58.578Z,4.65
2023-08-14T10:31:28.966Z,4.82
2023-08-14T10:34:00.090Z,4.88
2023-08-14T10:36:30.144Z,4.45
2023-08-14T10:39:08.681Z,4.18
2023-08-14T10:41:37.441Z,4.15
2023-08-14T10:44:09.833Z,4.15
2023-08-14T10:46:39.440Z,4.50
2023-08-14T10:49:09.450Z,5.00
2023-08-14T10:51:41.172Z,4.10
2023-08-14T10:54:14.793Z,4.38
2023-08-14T10:56:50.430Z,3.83
2023-08-14T10:59:28.025Z,4.25
2023-08-14T11:02:07.173Z,4.35
2023-08-14T11:04:37.977Z,3.95
2023-08-14T11:07:11.845Z,3.45
2023-08-14T11:09:41.281Z,3.60
2023-08-14T11:12:11.187Z,3.83
2023-08-14T11:14:41.284Z,3.72
2023-08-14T11:17:10.769Z,3.80
2023-08-14T11:19:41.143Z,3.40
2023-08-14T11:22:09.913Z,3.60
2023-08-14T11:24:39.291Z,3.35
2023-08-14T11:27:07.908Z,3.90
2023-08-14T11:29:45.022Z,3.35
2023-08-14T11:32:20.841Z,3.30
2023-08-14T11:34:51.753Z,3.20
2023-08-14T11:37:22.807Z,2.95
2023-08-14T11:39:51.516Z,3.38
2023-08-14T11:42:20.236Z,3.28
2023-08-14T11:44:48.967Z,3.28
2023-08-14T11:47:17.522Z,2.72
2023-08-14T11:49:46.327Z,3.60
2023-08-14T11:52:16.271Z,3.05
2023-08-14T11:54:46.135Z,3.10
2023-08-14T11:57:14.840Z,3.22
2023-08-14T11:59:44.659Z,2.90
2023-08-14T12:02:13.062Z,3.05
2023-08-14T12:04:42.298Z,2.95
2023-08-14T12:07:10.760Z,3.28
2023-08-14T12:09:40.655Z,3.30
2023-08-14T12:12:09.237Z,3.55
2023-08-14T12:14:41.081Z,3.13
2023-08-14T12:17:17.607Z,3.08
2023-08-14T12:19:52.157Z,3.47
2023-08-14T12:22:22.978Z,3.28
2023-08-14T12:24:53.168Z,3.53
2023-08-14T12:27:23.005Z,3.45
2023-08-14T12:29:52.999Z,3.22
2023-08-14T12:32:22.477Z,3.17
2023-08-14T12:34:51.530Z,2.90
2023-08-14T12:37:20.785Z,3.63
2023-08-14T12:39:52.420Z,3.13
2023-08-14T12:42:22.584Z,3.42
2023-08-14T12:44:55.126Z,3.05
2023-08-14T12:47:24.163Z,3.08
2023-08-14T12:49:52.759Z,3.30
2023-08-14T12:52:21.000Z,3.03
2023-08-14T12:54:49.368Z,2.90
2023-08-14T12:57:17.877Z,2.83
2023-08-14T12:59:50.734Z,3.53
2023-08-14T13:02:24.644Z,2.80
2023-08-14T13:04:57.800Z,3.22
2023-08-14T13:07:29.170Z,3.47
2023-08-14T13:09:57.605Z,2.50
2023-08-14T13:12:26.138Z,2.95
2023-08-14T13:14:58.771Z,3.03
2023-08-14T13:17:27.091Z,2.95
2023-08-14T13:19:55.519Z,2.88
2023-08-14T13:22:23.974Z,2.83
2023-08-14T13:24:52.494Z,3.00
2023-08-14T13:27:21.036Z,3.05
2023-08-14T13:29:49.486Z,3.10
2023-08-14T13:32:19.432Z,3.42
2023-08-14T13:34:47.877Z,3.00
2023-08-14T13:37:16.158Z,2.90
2023-08-14T13:39:44.970Z,2.97
2023-08-14T13:42:13.250Z,3.00
2023-08-14T13:44:41.441Z,2.92
2023-08-14T13:47:09.892Z,3.15
2023-08-14T13:49:40.160Z,3.10
2023-08-14T13:52:08.985Z,2.83
2023-08-14T13:54:37.263Z,2.70
2023-08-14T13:57:05.816Z,2.97
2023-08-14T13:59:34.037Z,2.58
2023-08-14T14:02:04.052Z,2.85
2023-08-14T14:04:32.627Z,2.92
2023-08-14T14:07:02.676Z,2.85
2023-08-14T14:09:31.057Z,2.70
2023-08-14T14:11:59.460Z,2.78
2023-08-14T14:14:27.808Z,3.00
2023-08-14T14:16:59.137Z,3.08
2023-08-14T14:19:28.100Z,2.90
2023-08-14T14:21:57.503Z,3.13
2023-08-14T14:24:27.762Z,2.97
2023-08-14T14:26:56.154Z,3.10
2023-08-14T14:29:24.906Z,3.00
2023-08-14T14:31:53.287Z,2.90
2023-08-14T14:34:21.725Z,2.58
2023-08-14T14:36:50.014Z,3.17
2023-08-14T14:39:19.201Z,2.90
2023-08-14T14:41:49.819Z,2.85
2023-08-14T14:44:18.408Z,3.05
2023-08-14T14:46:46.726Z,2.80
2023-08-14T14:49:15.101Z,2.80
2023-08-14T14:51:43.432Z,2.90
2023-08-14T14:54:11.795Z,3.10
2023-08-14T14:56:40.182Z,2.67
2023-08-14T14:59:09.817Z,2.80
2023-08-14T15:01:38.298Z,3.20
2023-08-14T15:04:06.762Z,3.08
2023-08-14T15:06:35.418Z,3.47
2023-08-14T15:09:03.828Z,2.83
2023-08-14T15:11:32.132Z,3.25
2023-08-14T15:14:00.348Z,2.53
2023-08-14T15:16:33.003Z,2.80
2023-08-14T15:19:01.756Z,2.85
2023-08-14T15:21:30.694Z,2.97
2023-08-14T15:23:59.178Z,2.88
2023-08-14T15:26:27.840Z,2.80
2023-08-14T15:28:56.116Z,2.60
2023-08-14T15:31:24.556Z,2.63
2023-08-14T15:33:54.306Z,3.15
2023-08-14T15:36:22.919Z,2.97
2023-08-14T15:38:51.227Z,3.17
2023-08-14T15:41:19.680Z,3.00
2023-08-14T15:43:48.126Z,2.95
2023-08-14T15:46:16.540Z,2.95
2023-08-14T15:48:46.003Z,3.30
2023-08-14T15:51:15.709Z,3.35
2023-08-14T15:53:44.286Z,3.20
2023-08-14T15:56:12.538Z,3.38
2023-08-14T15:58:40.798Z,3.20
2023-08-14T16:01:09.131Z,3.33
2023-08-14T16:03:37.954Z,3.70
2023-08-14T16:06:07.376Z,3.50
2023-08-14T16:08:37.149Z,3.20
2023-08-14T16:11:05.379Z,3.50
2023-08-14T16:13:34.139Z,3.13
2023-08-14T16:16:06.310Z,3.70
2023-08-14T16:18:35.433Z,3.53
2023-08-14T16:21:04.505Z,3.92
2023-08-14T16:23:32.927Z,3.80
2023-08-14T16:26:02.644Z,4.38
2023-08-14T16:28:31.040Z,4.00
2023-08-14T16:30:59.506Z,4.50
2023-08-14T16:33:27.837Z,4.00
2023-08-14T16:35:56.200Z,4.47
2023-08-14T16:38:24.527Z,4.95
2023-08-14T16:40:54.456Z,5.03
2023-08-14T16:43:24.079Z,4.75
2023-08-14T16:45:52.802Z,5.30
2023-08-14T16:48:21.267Z,4.90
2023-08-14T16:50:50.488Z,5.32
2023-08-14T16:53:18.767Z,5.50
2023-08-14T16:55:47.036Z,5.13
2023-08-14T16:58:15.348Z,4.88
2023-08-14T17:00:44.938Z,5.45
2023-08-14T17:03:13.552Z,5.13
2023-08-14T17:05:41.810Z,5.25
2023-08-14T17:08:10.365Z,5.45
2023-08-14T17:10:38.946Z,6.30
2023-08-14T17:13:07.255Z,6.35
2023-08-14T17:15:42.804Z,6.15
2023-08-14T17:18:12.573Z,6.18
2023-08-14T17:20:47.894Z,7.32
2023-08-14T17:23:19.655Z,7.40
2023-08-14T17:25:54.259Z,8.10
2023-08-14T17:28:25.095Z,7.85
2023-08-14T17:30:56.871Z,9.63
2023-08-14T17:33:28.562Z,10.50
2023-08-14T17:35:57.023Z,11.57
2023-08-14T17:38:25.322Z,13.90
2023-08-14T17:40:53.627Z,17.52
2023-08-14T17:43:22.045Z,13.15
2023-08-14T17:45:53.178Z,17.63
2023-08-14T17:48:21.533Z,19.05
2023-08-14T17:50:54.513Z,25.65
2023-08-14T17:53:23.380Z,23.63
2023-08-14T17:55:51.605Z,24.73
2023-08-14T17:58:20.588Z,23.67
2023-08-14T18:00:49.623Z,24.17
2023-08-14T18:03:18.581Z,23.33
2023-08-14T18:05:51.396Z,21.00
2023-08-14T18:08:21.870Z,21.67
2023-08-14T18:10:50.233Z,21.00
2023-08-14T18:13:18.605Z,21.20
2023-08-14T18:15:47.148Z,21.00
2023-08-14T18:18:15.486Z,20.17
2023-08-14T18:20:43.923Z,19.17
2023-08-14T18:23:12.649Z,20.17
2023-08-14T18:25:43.695Z,18.35
2023-08-14T18:28:12.124Z,18.70
2023-08-14T18:30:43.132Z,16.08
2023-08-14T18:33:12.635Z,16.23
2023-08-14T18:35:40.972Z,17.27
2023-08-14T18:38:10.312Z,15.85
2023-08-14T18:40:39.067Z,17.50
2023-08-14T18:43:08.661Z,17.00
2023-08-14T18:45:37.116Z,16.70
2023-08-14T18:48:05.571Z,18.42
2023-08-14T18:50:33.806Z,24.60
2023-08-14T18:53:02.781Z,25.20
2023-08-14T18:55:31.071Z,25.67
2023-08-14T18:57:59.329Z,23.52
2023-08-14T19:00:29.356Z,25.00
2023-08-14T19:02:57.637Z,22.38
2023-08-14T19:05:25.918Z,23.65
2023-08-14T19:07:54.168Z,28.08
2023-08-14T19:10:22.366Z,26.58
2023-08-14T19:12:51.718Z,27.75
2023-08-14T19:15:20.100Z,31.85
2023-08-14T19:17:50.017Z,34.35
2023-08-14T19:20:18.529Z,41.13
2023-08-14T19:22:46.808Z,43.78
2023-08-14T19:25:16.158Z,47.10
2023-08-14T19:27:44.440Z,46.13
2023-08-14T19:30:14.118Z,44.90
2023-08-14T19:32:43.219Z,43.83
2023-08-14T19:35:12.864Z,42.67
2023-08-14T19:37:41.141Z,41.03
2023-08-14T19:40:12.002Z,41.00
2023-08-14T19:42:43.009Z,38.15
2023-08-14T19:45:12.452Z,37.67
2023-08-14T19:47:40.795Z,34.60
2023-08-14T19:50:09.579Z,36.13
2023-08-14T19:52:39.187Z,34.22
2023-08-14T19:55:08.769Z,32.78
2023-08-14T19:57:37.060Z,32.22
2023-08-14T20:00:06.459Z,32.25
2023-08-14T20:02:34.706Z,32.53
2023-08-14T20:05:05.807Z,31.73
2023-08-14T20:07:34.108Z,29.63
2023-08-14T20:10:04.408Z,29.17
2023-08-14T20:12:32.577Z,30.60
2023-08-14T20:15:01.030Z,29.15
2023-08-14T20:17:29.772Z,29.42
2023-08-14T20:19:58.105Z,29.45
2023-08-14T20:22:26.327Z,29.15
2023-08-14T20:24:54.615Z,27.52
2023-08-14T20:27:24.306Z,27.00
2023-08-14T20:29:52.573Z,24.67
2023-08-14T20:32:23.588Z,24.70
2023-08-14T20:34:51.812Z,24.90
2023-08-14T20:37:20.425Z,23.50
2023-08-14T20:39:48.884Z,22.25
2023-08-14T20:42:17.270Z,23.00
2023-08-14T20:44:46.935Z,19.17
2023-08-14T20:47:15.203Z,19.15
2023-08-14T20:49:43.446Z,17.83
2023-08-14T20:52:11.648Z,17.75
2023-08-14T20:54:40.083Z,17.05
2023-08-14T20:57:08.379Z,16.15
2023-08-14T20:59:37.291Z,15.63
2023-08-14T21:02:06.991Z,15.70
2023-08-14T21:04:36.614Z,16.73
2023-08-14T21:07:05.382Z,16.02
2023-08-14T21:09:33.631Z,16.30
2023-08-14T21:12:01.893Z,16.73
2023-08-14T21:14:30.136Z,15.90
2023-08-14T21:16:58.386Z,15.35
2023-08-14T21:19:27.997Z,14.27
2023-08-14T21:21:56.229Z,12.95
2023-08-14T21:24:24.513Z,13.95
2023-08-14T21:26:52.770Z,13.38
2023-08-14T21:29:21.090Z,13.05
2023-08-14T21:31:49.434Z,12.35
2023-08-14T21:34:18.026Z,12.07
2023-08-14T21:36:47.638Z,11.73
2023-08-14T21:39:16.924Z,13.02
2023-08-14T21:41:45.240Z,14.27
2023-08-14T21:44:13.546Z,11.88
2023-08-14T21:46:44.514Z,12.55
2023-08-14T21:49:13.451Z,12.43
2023-08-14T21:51:41.767Z,12.95
2023-08-14T21:54:13.057Z,12.55
2023-08-14T21:56:41.371Z,12.43
2023-08-14T21:59:09.605Z,13.07
2023-08-14T22:01:37.854Z,12.25
2023-08-14T22:04:06.624Z,12.30
2023-08-14T22:06:34.879Z,12.35
2023-08-14T22:09:03.179Z,12.20
2023-08-14T22:11:33.438Z,11.40
2023-08-14T22:14:01.686Z,12.52
2023-08-14T22:16:30.044Z,11.63
2023-08-14T22:18:58.329Z,12.02
2023-08-14T22:21:26.626Z,11.57
2023-08-14T22:23:54.871Z,11.73
2023-08-14T22:26:23.107Z,11.82
2023-08-14T22:28:52.757Z,12.13
2023-08-14T22:31:21.113Z,13.07
2023-08-14T22:33:49.400Z,12.05
2023-08-14T22:36:17.675Z,11.85
2023-08-14T22:38:46.038Z,12.30
2023-08-14T22:41:14.331Z,12.05
2023-08-14T22:43:42.662Z,12.40
2023-08-14T22:46:12.319Z,11.93
2023-08-14T22:48:40.594Z,11.80
2023-08-14T22:51:08.993Z,12.80
2023-08-14T22:53:37.226Z,11.30
2023-08-14T22:56:06.056Z,12.25
2023-08-14T22:58:34.261Z,12.18
2023-08-14T23:01:02.562Z,12.50
2023-08-14T23:03:32.216Z,11.98
2023-08-14T23:06:00.511Z,11.88
2023-08-14T23:08:28.745Z,12.60
2023-08-14T23:10:57.067Z,12.00
2023-08-14T23:13:25.282Z,12.43
2023-08-14T23:15:53.597Z,12.38
2023-08-14T23:18:21.914Z,12.32
2023-08-14T23:20:51.713Z,11.50
2023-08-14T23:23:19.971Z,11.23
2023-08-14T23:25:48.221Z,11.48
2023-08-14T23:28:16.468Z,11.40
2023-08-14T23:30:44.644Z,11.43
2023-08-14T23:33:12.950Z,11.02
2023-08-14T23:35:41.200Z,11.25
2023-08-14T23:38:10.808Z,11.65
2023-08-14T23:40:39.049Z,11.63
2023-08-14T23:43:07.287Z,12.43
2023-08-14T23:45:35.585Z,12.02
2023-08-14T23:48:04.031Z,12.52
2023-08-14T23:50:32.514Z,12.52
2023-08-14T23:53:00.815Z,12.05
2023-08-14T23:55:30.426Z,11.85
2023-08-14T23:57:58.641Z,13.13
